createdAt,value
2019-03-31T00:00:36.352Z,79.67
2019-03-31T00:03:11.741Z,81.33
2019-03-31T00:05:47.037Z,76.23
2019-03-31T00:08:16.206Z,78.90
2019-03-31T00:10:53.785Z,77.93
2019-03-31T00:15:57.936Z,77.17
2019-03-31T00:18:27.125Z,79.00
2019-03-31T00:20:56.372Z,80.03
2019-03-31T00:23:31.160Z,81.63
2019-03-31T00:26:13.279Z,81.63
2019-03-31T00:28:42.545Z,77.93
2019-03-31T00:31:21.971Z,80.87
2019-03-31T00:33:44.532Z,79.37
2019-03-31T00:36:13.827Z,81.83
2019-03-31T00:38:51.495Z,82.93
2019-03-31T00:41:32.992Z,79.03
2019-03-31T00:44:02.335Z,76.17
2019-03-31T00:46:43.426Z,83.37
2019-03-31T00:49:13.985Z,80.10
2019-03-31T00:51:43.216Z,77.83
2019-03-31T00:54:14.563Z,82.70
2019-03-31T00:57:02.978Z,81.30
2019-03-31T00:59:32.185Z,84.37
2019-03-31T01:02:06.436Z,82.40
2019-03-31T01:04:36.783Z,78.83
2019-03-31T01:07:12.587Z,80.03
2019-03-31T01:09:42.707Z,81.20
2019-03-31T01:12:29.819Z,77.93
2019-03-31T01:14:59.109Z,79.07
2019-03-31T01:17:35.078Z,83.43
2019-03-31T01:20:07.166Z,80.57
2019-03-31T01:22:51.915Z,79.70
2019-03-31T01:25:33.813Z,80.10
2019-03-31T01:28:22.044Z,77.47
2019-03-31T01:30:54.501Z,77.43
2019-03-31T01:33:24.119Z,79.40
2019-03-31T01:35:53.552Z,75.60
2019-03-31T01:42:21.523Z,77.67
2019-03-31T01:42:27.384Z,76.93
2019-03-31T01:44:50.827Z,76.33
2019-03-31T01:50:10.632Z,74.30
2019-03-31T01:52:39.975Z,76.70
2019-03-31T01:55:18.742Z,75.80
2019-03-31T01:58:20.150Z,73.90
2019-03-31T02:00:53.604Z,67.73
2019-03-31T02:03:28.974Z,72.13
2019-03-31T02:06:07.467Z,74.30
2019-03-31T02:08:55.977Z,71.80
2019-03-31T02:11:33.787Z,69.43
2019-03-31T02:14:26.743Z,67.00
2019-03-31T02:16:56.047Z,70.37
2019-03-31T02:19:30.834Z,69.83
2019-03-31T02:22:16.599Z,68.00
2019-03-31T02:24:51.349Z,72.30
2019-03-31T02:27:32.932Z,68.50
2019-03-31T02:30:21.204Z,69.57
2019-03-31T02:33:09.588Z,63.90
2019-03-31T02:35:39.004Z,61.13
2019-03-31T02:38:08.314Z,60.70
2019-03-31T02:40:37.629Z,60.13
2019-03-31T02:43:06.897Z,62.60
2019-03-31T02:45:46.957Z,63.80
2019-03-31T02:48:28.446Z,61.60
2019-03-31T02:51:22.871Z,62.33
2019-03-31T02:54:01.236Z,63.37
2019-03-31T02:56:36.540Z,67.87
2019-03-31T02:59:05.852Z,61.73
2019-03-31T03:01:35.181Z,60.90
2019-03-31T03:04:08.001Z,56.37
2019-03-31T03:07:05.771Z,55.47
2019-03-31T03:09:52.692Z,50.60
2019-03-31T03:12:24.614Z,46.93
2019-03-31T03:15:01.821Z,41.33
2019-03-31T03:17:35.916Z,37.63
2019-03-31T03:20:06.467Z,38.03
2019-03-31T03:22:57.537Z,36.00
2019-03-31T03:25:27.386Z,35.43
2019-03-31T03:28:01.920Z,34.30
2019-03-31T03:30:31.288Z,34.93
2019-03-31T03:33:15.151Z,36.07
2019-03-31T03:36:02.067Z,35.57
2019-03-31T03:41:06.286Z,38.20
2019-03-31T03:43:53.525Z,37.37
2019-03-31T03:46:12.046Z,35.63
2019-03-31T03:51:37.598Z,34.80
2019-03-31T03:54:07.349Z,32.03
2019-03-31T03:56:43.420Z,32.83
2019-03-31T03:59:15.800Z,30.90
2019-03-31T04:01:55.334Z,31.10
2019-03-31T04:04:24.507Z,31.50
2019-03-31T04:06:53.767Z,31.00
2019-03-31T04:09:23.002Z,30.77
2019-03-31T04:11:57.956Z,31.87
2019-03-31T04:14:46.154Z,30.10
2019-03-31T04:17:15.336Z,31.07
2019-03-31T04:19:44.523Z,33.03
2019-03-31T04:22:13.674Z,31.67
2019-03-31T04:24:42.870Z,33.77
2019-03-31T04:27:18.949Z,30.70
2019-03-31T04:29:46.077Z,31.70
2019-03-31T04:32:24.529Z,32.50
2019-03-31T04:34:59.650Z,31.87
2019-03-31T04:37:28.961Z,31.20
2019-03-31T04:40:03.428Z,32.63
2019-03-31T04:42:50.548Z,34.03
2019-03-31T04:45:31.949Z,33.90
2019-03-31T04:48:01.324Z,31.43
2019-03-31T04:50:30.544Z,32.27
2019-03-31T04:52:59.964Z,29.77
2019-03-31T04:55:29.145Z,28.60
2019-03-31T04:57:58.501Z,28.77
2019-03-31T05:00:33.891Z,28.03
2019-03-31T05:03:20.831Z,26.30
2019-03-31T05:05:53.439Z,24.70
2019-03-31T05:08:38.026Z,24.73
2019-03-31T05:11:24.821Z,21.40
2019-03-31T05:13:54.004Z,20.97
2019-03-31T05:16:35.681Z,19.93
2019-03-31T05:19:05.115Z,18.50
2019-03-31T05:21:34.342Z,20.13
2019-03-31T05:26:57.105Z,19.20
2019-03-31T05:29:26.358Z,18.53
2019-03-31T05:31:55.608Z,20.23
2019-03-31T05:38:13.765Z,23.03
2019-03-31T05:40:45.677Z,19.00
2019-03-31T05:43:14.888Z,20.97
2019-03-31T05:45:44.165Z,20.80
2019-03-31T05:48:13.337Z,18.73
2019-03-31T05:50:50.364Z,18.87
2019-03-31T05:53:19.576Z,20.53
2019-03-31T05:56:03.619Z,19.00
2019-03-31T05:58:38.779Z,17.97
2019-03-31T06:01:17.084Z,17.43
2019-03-31T06:03:46.254Z,17.60
2019-03-31T06:06:15.634Z,18.07
2019-03-31T06:08:44.803Z,17.73
2019-03-31T06:11:14.055Z,17.83
2019-03-31T06:13:43.676Z,16.57
2019-03-31T06:16:32.094Z,17.07
2019-03-31T06:19:01.398Z,16.50
2019-03-31T06:21:30.566Z,16.40
2019-03-31T06:24:00.973Z,15.57
2019-03-31T06:26:30.263Z,15.57
2019-03-31T06:28:59.408Z,15.03
2019-03-31T06:31:28.560Z,13.43
2019-03-31T06:34:04.486Z,14.47
2019-03-31T06:36:36.788Z,13.63
2019-03-31T06:39:10.835Z,13.87
2019-03-31T06:41:40.115Z,13.10
2019-03-31T06:44:10.299Z,14.63
2019-03-31T06:46:41.255Z,13.87
2019-03-31T06:49:12.735Z,12.80
2019-03-31T06:52:13.328Z,12.70
2019-03-31T07:02:24.716Z,12.73
2019-03-31T07:05:00.930Z,13.83
2019-03-31T07:07:32.913Z,14.73
2019-03-31T07:10:02.554Z,13.57
2019-03-31T07:12:42.100Z,13.80
2019-03-31T07:15:17.808Z,14.13
2019-03-31T07:20:51.221Z,15.50
2019-03-31T07:23:20.771Z,12.77
2019-03-31T07:26:10.603Z,14.10
2019-03-31T07:28:39.869Z,11.83
2019-03-31T07:31:09.331Z,12.90
2019-03-31T07:33:40.935Z,12.40
2019-03-31T07:36:10.409Z,12.20
2019-03-31T07:38:50.734Z,11.73
2019-03-31T07:41:21.101Z,12.70
2019-03-31T07:43:53.995Z,12.87
2019-03-31T07:46:27.905Z,11.60
2019-03-31T07:48:59.372Z,11.67
2019-03-31T07:51:29.255Z,9.60
2019-03-31T07:53:59.015Z,11.67
2019-03-31T07:56:28.893Z,10.20
2019-03-31T07:59:00.619Z,10.27
2019-03-31T08:01:30.682Z,10.07
2019-03-31T08:04:00.412Z,8.93
2019-03-31T08:06:38.048Z,8.63
2019-03-31T08:09:12.045Z,9.07
2019-03-31T08:11:41.904Z,9.80
2019-03-31T08:14:13.357Z,9.93
2019-03-31T08:16:43.010Z,10.13
2019-03-31T08:19:20.526Z,11.27
2019-03-31T08:21:48.506Z,10.60
2019-03-31T08:24:18.277Z,6.87
2019-03-31T08:26:48.044Z,5.80
2019-03-31T08:29:18.003Z,3.83
2019-03-31T08:31:48.372Z,4.33
2019-03-31T08:34:18.865Z,4.20
2019-03-31T08:36:49.093Z,3.30
2019-03-31T08:39:18.992Z,3.10
2019-03-31T08:41:53.921Z,3.80
2019-03-31T08:44:23.878Z,4.00
2019-03-31T08:46:53.734Z,3.60
2019-03-31T08:49:25.394Z,4.17
2019-03-31T08:52:07.647Z,4.23
2019-03-31T08:54:38.639Z,4.10
2019-03-31T08:57:10.992Z,4.23
2019-03-31T08:59:42.381Z,4.47
2019-03-31T09:02:30.329Z,4.17
2019-03-31T09:05:02.064Z,4.50
2019-03-31T09:07:32.045Z,4.57
2019-03-31T09:10:05.992Z,4.10
2019-03-31T09:12:44.281Z,4.00
2019-03-31T09:15:14.691Z,3.57
2019-03-31T09:17:53.931Z,3.83
2019-03-31T09:20:21.603Z,3.10
2019-03-31T09:22:52.348Z,3.00
2019-03-31T09:25:35.475Z,2.90
2019-03-31T09:28:05.864Z,3.50
2019-03-31T09:31:00.887Z,3.27
2019-03-31T09:34:11.851Z,3.17
2019-03-31T09:37:23.223Z,3.30
2019-03-31T09:40:16.500Z,3.53
2019-03-31T09:42:48.261Z,3.53
2019-03-31T09:45:33.955Z,3.60
2019-03-31T09:48:04.571Z,3.83
2019-03-31T09:55:10.751Z,3.63
2019-03-31T09:57:28.339Z,3.90
2019-03-31T10:00:05.215Z,3.63
2019-03-31T10:02:39.744Z,3.73
2019-03-31T10:05:11.041Z,3.30
2019-03-31T10:07:52.274Z,4.50
2019-03-31T10:10:33.894Z,3.77
2019-03-31T10:13:03.244Z,3.80
2019-03-31T10:15:32.573Z,3.30
2019-03-31T10:18:12.204Z,3.37
2019-03-31T10:20:47.610Z,3.80
2019-03-31T10:27:24.402Z,3.13
2019-03-31T10:29:56.677Z,2.93
2019-03-31T10:32:35.051Z,3.07
2019-03-31T10:35:06.467Z,3.57
2019-03-31T10:38:02.697Z,5.07
2019-03-31T10:40:32.068Z,6.77
2019-03-31T10:43:01.310Z,6.13
2019-03-31T10:45:30.639Z,7.00
2019-03-31T10:48:20.358Z,6.10
2019-03-31T10:50:50.356Z,6.17
2019-03-31T10:53:38.659Z,5.93
2019-03-31T10:56:23.130Z,5.53
2019-03-31T10:58:52.442Z,6.00
2019-03-31T11:01:45.783Z,6.70
2019-03-31T11:04:24.047Z,5.77
2019-03-31T11:07:03.360Z,5.73
2019-03-31T11:09:37.389Z,5.87
2019-03-31T11:12:15.945Z,5.33
2019-03-31T11:15:22.391Z,4.97
2019-03-31T11:17:51.692Z,5.37
2019-03-31T11:20:21.001Z,5.20
2019-03-31T11:23:00.458Z,4.13
2019-03-31T11:25:40.035Z,4.87
2019-03-31T11:28:18.039Z,4.17
2019-03-31T11:37:13.553Z,4.30
2019-03-31T11:39:42.491Z,4.47
2019-03-31T11:42:23.149Z,4.93
2019-03-31T11:44:52.575Z,4.70
2019-03-31T11:47:21.843Z,4.27
2019-03-31T11:49:51.119Z,5.60
2019-03-31T11:52:22.069Z,4.20
2019-03-31T11:54:51.459Z,5.00
2019-03-31T11:57:20.679Z,4.60
2019-03-31T11:59:52.957Z,5.17
2019-03-31T12:02:27.426Z,4.10
2019-03-31T12:04:57.055Z,4.10
2019-03-31T12:07:28.373Z,4.93
2019-03-31T12:09:57.269Z,3.93
2019-03-31T12:12:26.400Z,4.27
2019-03-31T12:15:00.589Z,4.03
2019-03-31T12:17:40.716Z,3.60
2019-03-31T12:20:13.160Z,3.90
2019-03-31T12:23:27.596Z,3.73
2019-03-31T12:25:37.599Z,3.97
2019-03-31T12:28:06.913Z,3.70
2019-03-31T12:30:36.047Z,4.13
2019-03-31T12:33:14.479Z,4.33
2019-03-31T12:36:00.919Z,4.00
2019-03-31T12:38:44.470Z,3.63
2019-03-31T12:41:13.760Z,3.97
2019-03-31T12:43:43.997Z,3.23
2019-03-31T12:46:13.189Z,3.77
2019-03-31T12:48:52.064Z,3.30
2019-03-31T12:55:11.972Z,3.93
2019-03-31T12:57:40.658Z,3.23
2019-03-31T13:10:05.079Z,3.67
2019-03-31T13:12:35.208Z,3.90
2019-03-31T13:15:04.544Z,3.43
2019-03-31T13:17:33.676Z,3.37
2019-03-31T13:20:02.843Z,3.50
2019-03-31T13:22:34.251Z,3.47
2019-03-31T13:25:03.452Z,4.40
2019-03-31T13:27:35.440Z,3.73
2019-03-31T13:30:05.406Z,3.23
2019-03-31T13:32:35.143Z,3.77
2019-03-31T13:35:08.102Z,4.03
2019-03-31T13:37:35.432Z,3.63
2019-03-31T13:40:04.866Z,3.83
2019-03-31T13:42:33.990Z,2.57
2019-03-31T13:45:03.398Z,3.50
2019-03-31T13:47:36.857Z,4.00
2019-03-31T13:50:12.652Z,3.63
2019-03-31T13:52:46.941Z,3.60
2019-03-31T13:55:16.095Z,4.03
2019-03-31T13:57:47.044Z,3.80
2019-03-31T14:00:25.311Z,3.37
2019-03-31T14:02:52.813Z,3.33
2019-03-31T14:05:41.006Z,3.13
2019-03-31T14:08:25.722Z,3.37
2019-03-31T14:10:47.265Z,3.70
2019-03-31T14:16:47.153Z,4.13
2019-03-31T14:19:16.386Z,3.43
2019-03-31T14:21:46.735Z,3.07
2019-03-31T14:24:15.951Z,3.50
2019-03-31T14:32:57.391Z,2.90
2019-03-31T14:35:08.761Z,3.50
2019-03-31T14:37:44.319Z,3.53
2019-03-31T14:40:32.008Z,3.50
2019-03-31T14:43:04.344Z,3.57
2019-03-31T14:45:36.867Z,3.60
2019-03-31T14:48:31.904Z,3.70
2019-03-31T14:51:07.877Z,3.27
2019-03-31T14:53:49.239Z,3.50
2019-03-31T14:56:36.443Z,3.20
2019-03-31T14:59:14.343Z,3.43
2019-03-31T15:01:43.675Z,3.17
2019-03-31T15:04:29.554Z,3.20
2019-03-31T15:10:44.423Z,3.47
2019-03-31T15:16:30.901Z,3.60
2019-03-31T15:19:10.657Z,3.72
2019-03-31T15:21:44.062Z,3.30
2019-03-31T15:24:26.175Z,3.20
2019-03-31T15:26:55.432Z,3.63
2019-03-31T15:29:24.651Z,3.67
2019-03-31T15:31:53.972Z,3.50
2019-03-31T15:34:38.444Z,2.92
2019-03-31T15:40:36.552Z,3.35
2019-03-31T15:43:21.665Z,3.65
2019-03-31T15:46:34.775Z,3.60
2019-03-31T15:49:14.258Z,3.65
2019-03-31T15:51:47.748Z,3.08
2019-03-31T15:57:18.036Z,3.67
2019-03-31T16:04:23.221Z,3.08
2019-03-31T16:06:55.496Z,2.98
2019-03-31T16:09:46.488Z,3.20
2019-03-31T16:12:17.438Z,2.95
2019-03-31T16:15:05.249Z,3.40
2019-03-31T16:18:14.861Z,3.30
2019-03-31T16:20:58.650Z,3.52
2019-03-31T16:23:33.539Z,3.10
2019-03-31T16:26:17.611Z,3.10
2019-03-31T16:32:48.814Z,2.70
2019-03-31T16:35:38.880Z,2.45
2019-03-31T16:41:48.238Z,3.20
2019-03-31T16:44:16.927Z,2.83
2019-03-31T16:46:45.702Z,2.85
2019-03-31T16:49:51.141Z,2.92
2019-03-31T16:52:35.089Z,2.98
2019-03-31T16:55:03.865Z,2.98
2019-03-31T16:57:32.610Z,3.08
2019-03-31T17:00:11.271Z,2.45
2019-03-31T17:02:39.973Z,3.05
2019-03-31T17:05:26.844Z,3.02
2019-03-31T17:07:57.209Z,2.85
2019-03-31T17:10:25.945Z,2.50
2019-03-31T17:12:58.791Z,3.05
2019-03-31T17:15:27.481Z,3.00
2019-03-31T17:18:22.885Z,3.00
2019-03-31T17:20:51.553Z,2.95
2019-03-31T17:23:37.510Z,2.70
2019-03-31T17:26:06.322Z,2.30
2019-03-31T17:29:12.531Z,2.35
2019-03-31T17:31:42.172Z,2.70
2019-03-31T17:34:14.049Z,2.72
2019-03-31T17:37:01.816Z,2.62
2019-03-31T17:39:46.883Z,2.65
2019-03-31T17:42:33.053Z,2.77
2019-03-31T17:45:17.104Z,2.95
2019-03-31T17:47:50.410Z,2.42
2019-03-31T17:50:19.165Z,2.60
2019-03-31T17:53:07.801Z,2.67
2019-03-31T17:55:36.437Z,2.77
2019-03-31T17:58:05.505Z,2.67
2019-03-31T18:04:30.050Z,2.43
2019-03-31T18:07:02.860Z,2.37
2019-03-31T18:09:40.841Z,2.43
2019-03-31T18:12:58.218Z,2.77
2019-03-31T18:16:06.509Z,2.20
2019-03-31T18:21:39.456Z,2.60
2019-03-31T18:24:08.150Z,2.53
2019-03-31T18:26:42.932Z,3.13
2019-03-31T18:29:26.975Z,2.63
2019-03-31T18:32:07.897Z,2.57
2019-03-31T18:34:40.008Z,2.83
2019-03-31T18:37:33.921Z,2.40
2019-03-31T18:40:18.590Z,2.43
2019-03-31T18:43:06.090Z,3.10
2019-03-31T18:45:34.798Z,2.80
2019-03-31T18:48:36.011Z,3.33
2019-03-31T18:55:10.426Z,2.30
2019-03-31T18:58:04.560Z,3.53
2019-03-31T19:01:36.482Z,3.80
2019-03-31T19:09:57.287Z,2.93
2019-03-31T19:13:00.413Z,3.20
2019-03-31T19:15:59.911Z,2.90
2019-03-31T19:21:58.688Z,2.50
2019-03-31T19:24:54.040Z,3.03
2019-03-31T19:37:04.009Z,3.30
2019-03-31T19:40:35.138Z,3.23
2019-03-31T19:43:23.147Z,3.70
2019-03-31T19:46:50.589Z,2.70
2019-03-31T19:49:44.404Z,3.50
2019-03-31T19:52:50.921Z,3.17
2019-03-31T19:55:38.757Z,3.03
2019-03-31T19:58:29.197Z,3.03
2019-03-31T20:01:17.141Z,2.57
2019-03-31T20:04:34.409Z,2.77
2019-03-31T20:07:25.700Z,2.53
2019-03-31T20:10:29.085Z,2.70
2019-03-31T20:13:54.469Z,2.70
2019-03-31T20:23:33.883Z,2.67
2019-03-31T20:26:38.316Z,2.83
2019-03-31T20:36:15.197Z,3.07
2019-03-31T20:39:14.349Z,2.40
2019-03-31T20:45:15.806Z,2.80
2019-03-31T20:47:45.192Z,2.90
2019-03-31T20:50:17.528Z,3.00
2019-03-31T20:52:46.772Z,2.47
2019-03-31T20:55:18.646Z,2.50
2019-03-31T20:57:56.881Z,3.00
2019-03-31T21:00:26.530Z,2.80
2019-03-31T21:02:55.842Z,2.40
2019-03-31T21:05:25.246Z,3.37
2019-03-31T21:07:54.900Z,2.50
2019-03-31T21:10:24.323Z,2.70
2019-03-31T21:12:56.363Z,2.67
2019-03-31T21:15:28.377Z,2.97
2019-03-31T21:17:57.379Z,2.00
2019-03-31T21:20:26.783Z,2.70
2019-03-31T21:22:56.701Z,2.53
2019-03-31T21:25:26.130Z,3.07
2019-03-31T21:27:56.531Z,2.50
2019-03-31T21:30:25.879Z,2.47
2019-03-31T21:32:56.815Z,2.67
2019-03-31T21:35:26.543Z,3.30
2019-03-31T21:37:56.127Z,2.97
2019-03-31T21:40:27.569Z,2.53
2019-03-31T21:42:56.989Z,2.73
2019-03-31T21:45:26.140Z,2.70
2019-03-31T21:47:57.270Z,3.67
2019-03-31T21:50:29.544Z,2.80
2019-03-31T21:52:59.363Z,2.40
2019-03-31T21:55:28.638Z,3.13
2019-03-31T21:57:58.214Z,3.10
2019-03-31T22:00:45.137Z,2.57
2019-03-31T22:03:14.508Z,2.33
2019-03-31T22:05:43.918Z,2.90
2019-03-31T22:08:14.255Z,2.67
2019-03-31T22:10:47.873Z,4.30
2019-03-31T22:13:17.366Z,3.57
2019-03-31T22:15:48.749Z,2.80
2019-03-31T22:18:18.041Z,2.63
2019-03-31T22:20:47.643Z,2.50
2019-03-31T22:23:22.849Z,2.60
2019-03-31T22:25:52.150Z,2.70
2019-03-31T22:28:21.509Z,3.17
2019-03-31T22:30:50.988Z,2.30
2019-03-31T22:33:20.289Z,3.00
2019-03-31T22:36:09.193Z,2.00
2019-03-31T22:38:43.329Z,2.60
2019-03-31T22:41:12.576Z,2.63
2019-03-31T22:43:42.206Z,2.20
2019-03-31T22:46:12.903Z,2.50
2019-03-31T22:48:42.521Z,2.80
2019-03-31T22:51:13.193Z,2.90
2019-03-31T22:53:42.531Z,2.70
2019-03-31T22:56:11.919Z,3.40
2019-03-31T22:58:41.157Z,2.63
2019-03-31T23:01:10.642Z,2.77
2019-03-31T23:03:40.197Z,2.77
2019-03-31T23:06:09.538Z,2.77
2019-03-31T23:08:41.397Z,2.97
2019-03-31T23:11:10.813Z,2.70
2019-03-31T23:13:40.222Z,1.77
2019-03-31T23:16:12.092Z,2.57
2019-03-31T23:18:44.366Z,2.90
2019-03-31T23:21:15.958Z,2.63
2019-03-31T23:23:46.751Z,2.57
2019-03-31T23:26:18.373Z,2.20
2019-03-31T23:28:50.332Z,1.83
2019-03-31T23:31:25.317Z,2.47
2019-03-31T23:33:54.552Z,2.50
2019-03-31T23:36:26.857Z,2.80
2019-03-31T23:38:58.453Z,1.60
2019-03-31T23:41:37.966Z,2.70
2019-03-31T23:44:07.349Z,2.40
2019-03-31T23:46:36.916Z,1.70
2019-03-31T23:49:06.224Z,2.43
2019-03-31T23:51:35.528Z,2.20
2019-03-31T23:54:06.314Z,2.13
2019-03-31T23:56:37.258Z,2.47
2019-03-31T23:59:07.688Z,2.30
